Terminal Aerodrome Forecast
Issued by NWS

Home | Current Version | Previous Version | Text Only | Print | Product List | Glossary On
Versions: 1 2 3 4 5 6 7 8 9 10 11 12 13 14 15 16 17 18
676
FTUS43 KJKL 280805 AAA
TAFSME
TAF AMD
KSME 280805Z 2808/2906 22004KT P6SM VCSH BKN030 OVC050
     FM281000 25005KT 5SM BR VCSH SCT003 OVC010
     FM281300 27005KT P6SM SCT003 BKN010
     FM281800 28006KT P6SM SCT010 BKN020=

USA.gov is the U.S. government's official web portal to all federal, state and local government web resources and services.